createdAt,value
2022-12-08T00:02:03.539Z,5.50
2022-12-08T00:04:52.636Z,5.40
2022-12-08T00:07:38.815Z,5.40
2022-12-08T00:10:39.573Z,5.40
2022-12-08T00:12:58.997Z,5.30
2022-12-08T00:15:29.511Z,5.20
2022-12-08T00:17:58.380Z,5.00
2022-12-08T00:20:27.370Z,4.90
2022-12-08T00:22:56.278Z,4.80
2022-12-08T00:25:25.292Z,4.80
2022-12-08T00:27:54.248Z,4.60
2022-12-08T00:30:23.028Z,4.50
2022-12-08T00:32:53.358Z,4.50
2022-12-08T00:35:22.212Z,4.40
2022-12-08T00:37:52.340Z,4.40
2022-12-08T00:40:22.777Z,4.60
2022-12-08T00:42:51.709Z,4.30
2022-12-08T00:45:20.668Z,4.40
2022-12-08T00:47:49.508Z,4.20
2022-12-08T00:50:19.942Z,4.10
2022-12-08T00:52:48.675Z,4.00
2022-12-08T00:55:17.719Z,3.90
2022-12-08T00:57:46.508Z,3.80
2022-12-08T01:00:16.250Z,3.70
2022-12-08T01:02:45.001Z,3.60
2022-12-08T01:05:13.764Z,3.40
2022-12-08T01:07:44.069Z,3.40
2022-12-08T01:10:12.997Z,3.40
2022-12-08T01:12:41.745Z,3.30
2022-12-08T01:15:11.605Z,3.30
2022-12-08T01:17:40.381Z,3.30
2022-12-08T01:20:10.439Z,3.30
2022-12-08T01:22:39.198Z,3.20
2022-12-08T01:25:10.520Z,3.30
2022-12-08T01:27:39.494Z,3.30
2022-12-08T01:30:10.236Z,3.30
2022-12-08T01:32:39.047Z,3.30
2022-12-08T01:35:08.425Z,3.40
2022-12-08T01:37:37.204Z,3.40
2022-12-08T01:40:18.361Z,3.60
2022-12-08T01:42:47.081Z,3.40
2022-12-08T01:45:22.684Z,3.50
2022-12-08T01:47:56.060Z,3.40
2022-12-08T01:50:25.472Z,3.60
2022-12-08T01:53:00.858Z,3.40
2022-12-08T01:55:37.623Z,3.40
2022-12-08T01:58:18.188Z,3.40
2022-12-08T02:00:47.051Z,3.40
2022-12-08T02:03:21.636Z,3.40
2022-12-08T02:05:50.510Z,3.50
2022-12-08T02:08:20.549Z,3.60
2022-12-08T02:10:53.298Z,3.40
2022-12-08T02:13:25.838Z,3.40
2022-12-08T02:16:06.460Z,3.40
2022-12-08T02:19:28.621Z,3.50
2022-12-08T02:21:57.435Z,3.40
2022-12-08T02:24:39.932Z,3.30
2022-12-08T02:27:42.481Z,3.20
2022-12-08T02:30:21.147Z,3.20
2022-12-08T02:34:01.756Z,3.30
2022-12-08T02:36:41.264Z,3.20
2022-12-08T02:39:28.520Z,3.10
2022-12-08T02:42:10.427Z,3.10
2022-12-08T02:44:47.309Z,3.00
2022-12-08T02:47:20.838Z,3.00
2022-12-08T02:49:58.319Z,3.20
2022-12-08T02:52:48.144Z,2.90
2022-12-08T02:55:29.715Z,2.90
2022-12-08T02:58:45.979Z,2.90
2022-12-08T03:01:47.232Z,2.90
2022-12-08T03:04:33.468Z,2.90
2022-12-08T03:07:14.148Z,3.00
2022-12-08T03:09:58.092Z,2.80
2022-12-08T03:12:33.307Z,2.90
2022-12-08T03:15:10.742Z,2.60
2022-12-08T03:17:45.977Z,2.80
2022-12-08T03:20:22.708Z,2.80
2022-12-08T03:22:59.886Z,2.90
2022-12-08T03:25:37.271Z,2.60
2022-12-08T03:28:07.908Z,2.80
2022-12-08T03:30:42.069Z,2.40
2022-12-08T03:33:19.202Z,2.40
2022-12-08T03:35:51.373Z,2.60
2022-12-08T03:38:23.178Z,2.60
2022-12-08T03:41:09.093Z,2.60
2022-12-08T03:43:38.653Z,2.50
2022-12-08T03:46:08.299Z,2.50
2022-12-08T03:48:37.963Z,2.60
2022-12-08T03:51:07.089Z,2.30
2022-12-08T03:53:38.209Z,2.50
2022-12-08T03:56:08.761Z,2.30
2022-12-08T03:58:38.084Z,2.30
2022-12-08T04:01:07.082Z,2.40
2022-12-08T04:03:36.231Z,2.50
2022-12-08T04:06:05.717Z,2.30
2022-12-08T04:08:34.585Z,2.30
2022-12-08T04:11:06.623Z,2.40
2022-12-08T04:13:36.007Z,2.30
2022-12-08T04:16:06.402Z,2.20
2022-12-08T04:18:36.660Z,2.20
2022-12-08T04:21:05.965Z,2.40
2022-12-08T04:23:35.098Z,2.10
2022-12-08T04:26:06.185Z,2.00
2022-12-08T04:28:35.729Z,1.90
2022-12-08T04:31:05.213Z,2.00
2022-12-08T04:33:35.334Z,1.60
2022-12-08T04:36:04.948Z,1.80
2022-12-08T04:38:34.438Z,1.80
2022-12-08T04:41:05.263Z,2.00
2022-12-08T04:43:34.364Z,1.90
2022-12-08T04:46:03.375Z,2.10
2022-12-08T04:48:32.353Z,2.00
2022-12-08T04:51:02.020Z,2.00
2022-12-08T04:53:30.939Z,1.90
2022-12-08T04:55:59.875Z,2.00
2022-12-08T04:58:30.332Z,2.10
2022-12-08T05:00:59.281Z,1.90
2022-12-08T05:03:28.831Z,1.90
2022-12-08T05:05:57.687Z,2.10
2022-12-08T05:08:26.456Z,2.10
2022-12-08T05:10:55.489Z,1.90
2022-12-08T05:13:24.349Z,1.90
2022-12-08T05:15:54.594Z,2.10
2022-12-08T05:18:23.357Z,2.10
2022-12-08T05:20:52.059Z,1.90
2022-12-08T05:23:21.126Z,2.10
2022-12-08T05:25:49.921Z,1.80
2022-12-08T05:28:40.760Z,2.00
2022-12-08T05:31:09.101Z,1.80
2022-12-08T05:33:37.849Z,2.00
2022-12-08T05:36:07.260Z,1.80
2022-12-08T05:38:36.032Z,1.80
2022-12-08T05:41:04.992Z,2.00
2022-12-08T05:43:33.730Z,1.90
2022-12-08T05:46:02.942Z,1.90
2022-12-08T05:48:33.629Z,1.90
2022-12-08T05:51:02.553Z,1.80
2022-12-08T05:53:31.526Z,1.90
2022-12-08T05:56:00.959Z,1.70
2022-12-08T05:58:30.184Z,1.80
2022-12-08T06:00:59.027Z,1.70
2022-12-08T06:03:28.021Z,1.80
2022-12-08T06:05:58.278Z,1.80
2022-12-08T06:08:26.977Z,1.60
2022-12-08T06:10:55.755Z,1.50
2022-12-08T06:13:24.413Z,1.50
2022-12-08T06:15:53.059Z,1.60
2022-12-08T06:18:21.870Z,1.50
2022-12-08T06:20:50.608Z,1.50
2022-12-08T06:23:21.085Z,1.40
2022-12-08T06:25:49.769Z,1.50
2022-12-08T06:28:18.970Z,1.30
2022-12-08T06:30:47.597Z,1.30
2022-12-08T06:33:16.559Z,1.40
2022-12-08T06:35:45.258Z,1.20
2022-12-08T06:38:13.908Z,1.10
2022-12-08T06:40:44.143Z,1.00
2022-12-08T06:43:12.760Z,1.00
2022-12-08T06:45:42.960Z,1.00
2022-12-08T06:48:11.633Z,1.10
2022-12-08T06:50:40.454Z,0.90
2022-12-08T06:53:09.360Z,1.10
2022-12-08T06:55:58.236Z,1.20
2022-12-08T06:58:33.358Z,1.20
2022-12-08T07:01:07.841Z,1.20
2022-12-08T07:03:37.038Z,1.10
2022-12-08T07:06:06.434Z,1.20
2022-12-08T07:08:35.903Z,1.20
2022-12-08T07:11:09.697Z,1.20
2022-12-08T07:13:39.900Z,1.20
2022-12-08T07:16:10.604Z,1.20
2022-12-08T07:18:39.907Z,1.30
2022-12-08T07:21:11.760Z,1.40
2022-12-08T07:23:43.487Z,1.40
2022-12-08T07:26:14.060Z,1.50
2022-12-08T07:28:44.747Z,1.30
2022-12-08T07:31:21.289Z,1.50
2022-12-08T07:33:50.653Z,1.40
2022-12-08T07:36:19.859Z,1.50
2022-12-08T07:38:49.455Z,1.50
2022-12-08T07:41:23.350Z,1.50
2022-12-08T07:43:54.579Z,1.50
2022-12-08T07:46:25.696Z,1.60
2022-12-08T07:48:55.733Z,1.70
2022-12-08T07:51:26.209Z,1.70
2022-12-08T07:53:55.548Z,1.60
2022-12-08T07:56:25.046Z,1.80
2022-12-08T07:58:55.136Z,1.90
2022-12-08T08:01:27.316Z,1.80
2022-12-08T08:04:01.540Z,1.80
2022-12-08T08:06:30.279Z,1.80
2022-12-08T08:08:58.803Z,1.70
2022-12-08T08:11:27.581Z,1.70
2022-12-08T08:13:58.824Z,2.00
2022-12-08T08:16:28.501Z,2.00
2022-12-08T08:18:58.774Z,1.90
2022-12-08T08:21:45.085Z,1.90
2022-12-08T08:24:14.619Z,2.00
2022-12-08T08:26:43.178Z,1.90
2022-12-08T08:29:13.268Z,2.00
2022-12-08T08:31:42.050Z,2.30
2022-12-08T08:34:10.944Z,2.20
2022-12-08T08:36:39.974Z,2.30
2022-12-08T08:39:09.082Z,2.30
2022-12-08T08:41:37.692Z,2.30
2022-12-08T08:44:07.012Z,2.20
2022-12-08T08:46:37.247Z,2.50
2022-12-08T08:49:06.076Z,2.80
2022-12-08T08:51:35.375Z,3.50
2022-12-08T08:54:06.725Z,4.60
2022-12-08T08:56:35.360Z,5.80
2022-12-08T08:59:04.225Z,6.80
2022-12-08T09:01:33.195Z,7.70
2022-12-08T09:04:03.439Z,8.60
2022-12-08T09:06:32.474Z,9.50
2022-12-08T09:09:04.515Z,10.20
2022-12-08T09:11:34.607Z,10.90
2022-12-08T09:14:03.208Z,11.40
2022-12-08T09:16:32.708Z,11.80
2022-12-08T09:19:05.128Z,12.00
2022-12-08T09:21:33.772Z,12.80
2022-12-08T09:24:02.416Z,13.50
2022-12-08T09:26:30.995Z,14.20
2022-12-08T09:29:00.665Z,14.70
2022-12-08T09:31:29.226Z,15.40
2022-12-08T09:33:59.542Z,16.10
2022-12-08T09:36:29.755Z,16.40
2022-12-08T09:38:58.680Z,16.80
2022-12-08T09:41:40.347Z,17.20
2022-12-08T09:44:47.708Z,17.60
2022-12-08T09:47:24.835Z,18.30
2022-12-08T09:50:03.568Z,18.80
2022-12-08T09:52:42.122Z,19.40
2022-12-08T09:55:26.028Z,20.00
2022-12-08T09:58:04.258Z,20.30
2022-12-08T10:00:32.842Z,20.40
2022-12-08T10:03:01.408Z,20.40
2022-12-08T10:05:37.432Z,20.10
2022-12-08T10:08:18.058Z,20.10
2022-12-08T10:10:57.988Z,20.10
2022-12-08T10:13:40.179Z,20.40
2022-12-08T10:16:29.860Z,20.40
2022-12-08T10:19:14.699Z,20.50
2022-12-08T10:21:43.297Z,20.80
2022-12-08T10:24:23.514Z,20.10
2022-12-08T10:26:52.198Z,20.10
2022-12-08T10:29:20.714Z,20.50
2022-12-08T10:31:49.409Z,21.00
2022-12-08T10:34:24.406Z,21.50
2022-12-08T10:36:56.252Z,22.10
2022-12-08T10:39:38.814Z,22.60
2022-12-08T10:42:20.807Z,23.00
2022-12-08T10:45:00.442Z,23.10
2022-12-08T10:47:31.645Z,23.20
2022-12-08T10:50:20.571Z,22.80
2022-12-08T10:52:58.465Z,22.70
2022-12-08T10:55:29.190Z,22.50
2022-12-08T10:57:57.897Z,22.50
2022-12-08T11:00:29.399Z,23.00
2022-12-08T11:03:01.306Z,23.50
2022-12-08T11:05:36.305Z,24.10
2022-12-08T11:08:06.900Z,24.70
2022-12-08T11:10:43.868Z,24.90
2022-12-08T11:13:22.346Z,24.60
2022-12-08T11:15:52.677Z,24.60
2022-12-08T11:18:42.318Z,24.60
2022-12-08T11:21:16.296Z,24.10
2022-12-08T11:23:50.165Z,22.60
2022-12-08T11:26:32.990Z,20.30
2022-12-08T11:29:01.734Z,18.00
2022-12-08T11:31:36.525Z,16.10
2022-12-08T11:34:06.893Z,14.70
2022-12-08T11:36:39.421Z,14.00
2022-12-08T11:39:13.045Z,13.70
2022-12-08T11:41:46.354Z,13.60
2022-12-08T11:44:29.429Z,13.70
2022-12-08T11:47:05.547Z,13.40
2022-12-08T11:49:39.776Z,12.90
2022-12-08T11:52:22.380Z,12.60
2022-12-08T11:54:59.087Z,11.90
2022-12-08T11:57:31.821Z,11.30
2022-12-08T12:00:03.980Z,11.40
2022-12-08T12:02:42.715Z,11.30
2022-12-08T12:05:47.602Z,10.90
2022-12-08T12:08:41.919Z,10.50
2022-12-08T12:11:42.850Z,10.20
2022-12-08T12:14:35.974Z,9.90
2022-12-08T12:17:08.500Z,9.40
2022-12-08T12:19:41.132Z,9.20
2022-12-08T12:22:17.391Z,8.90
2022-12-08T12:24:49.410Z,8.70
2022-12-08T12:27:28.621Z,8.50
2022-12-08T12:30:03.868Z,8.40
2022-12-08T12:32:46.882Z,8.30
2022-12-08T12:35:26.820Z,8.10
2022-12-08T12:38:00.920Z,8.10
2022-12-08T12:40:39.052Z,8.10
2022-12-08T12:43:30.138Z,8.10
2022-12-08T12:46:42.335Z,8.00
2022-12-08T12:50:05.738Z,8.10
2022-12-08T12:52:50.642Z,8.10
2022-12-08T12:55:56.559Z,7.90
2022-12-08T12:58:42.835Z,7.90
2022-12-08T13:01:53.318Z,7.90
2022-12-08T13:04:31.978Z,7.80
2022-12-08T13:07:01.288Z,7.90
2022-12-08T13:09:36.245Z,8.00
2022-12-08T13:12:12.548Z,8.00
2022-12-08T13:14:50.319Z,8.00
2022-12-08T13:17:30.575Z,8.00
2022-12-08T13:20:02.539Z,8.00
2022-12-08T13:23:14.648Z,8.00
2022-12-08T13:25:52.900Z,7.90
2022-12-08T13:28:30.475Z,7.90
2022-12-08T13:31:01.001Z,8.00
2022-12-08T13:33:40.659Z,8.10
2022-12-08T13:36:25.233Z,8.20
2022-12-08T13:38:59.262Z,8.20
2022-12-08T13:41:38.761Z,8.20
2022-12-08T13:51:08.180Z,8.40
2022-12-08T13:56:59.329Z,8.60
2022-12-08T13:58:44.667Z,8.70
2022-12-08T14:01:18.724Z,8.80
2022-12-08T14:04:22.086Z,8.80
2022-12-08T14:06:46.911Z,8.90
2022-12-08T14:09:21.434Z,8.80
2022-12-08T14:11:58.423Z,8.70
2022-12-08T14:15:01.206Z,8.70
2022-12-08T14:17:25.349Z,8.50
2022-12-08T14:19:59.578Z,8.40
2022-12-08T14:22:35.542Z,8.20
2022-12-08T14:25:06.725Z,8.00
2022-12-08T14:27:38.697Z,7.90
2022-12-08T14:30:16.876Z,7.70
2022-12-08T14:32:49.972Z,7.60
2022-12-08T14:35:26.908Z,7.50
2022-12-08T14:37:59.972Z,7.50
2022-12-08T14:40:34.967Z,7.40
2022-12-08T14:43:19.229Z,7.40
2022-12-08T14:45:54.631Z,7.30
2022-12-08T14:48:26.611Z,7.20
2022-12-08T14:51:07.678Z,7.00
2022-12-08T14:53:44.515Z,6.80
2022-12-08T14:56:21.827Z,6.80
2022-12-08T14:59:02.649Z,6.80
2022-12-08T15:01:31.868Z,6.80
2022-12-08T15:04:08.877Z,6.70
2022-12-08T15:06:38.806Z,6.60
2022-12-08T15:09:29.014Z,6.60
2022-12-08T15:12:03.417Z,6.50
2022-12-08T15:14:37.110Z,6.50
2022-12-08T15:17:31.284Z,6.40
2022-12-08T15:20:01.642Z,6.30
2022-12-08T15:22:32.349Z,6.30
2022-12-08T15:25:02.963Z,6.20
2022-12-08T15:27:38.667Z,6.10
2022-12-08T15:30:17.757Z,5.90
2022-12-08T15:32:46.621Z,5.80
2022-12-08T15:35:18.012Z,5.70
2022-12-08T15:37:46.587Z,5.70
2022-12-08T15:40:23.042Z,5.70
2022-12-08T15:42:51.687Z,5.60
2022-12-08T15:45:24.718Z,5.60
2022-12-08T15:47:53.284Z,5.60
2022-12-08T15:50:24.472Z,5.60
2022-12-08T15:52:52.976Z,5.60
2022-12-08T15:55:23.719Z,5.60
2022-12-08T16:00:52.443Z,5.60
2022-12-08T16:04:13.784Z,5.60
2022-12-08T16:09:15.894Z,5.60
2022-12-08T16:12:08.786Z,5.50
2022-12-08T16:17:28.910Z,5.20
2022-12-08T16:19:57.637Z,5.20
2022-12-08T16:22:52.742Z,5.20
2022-12-08T16:25:20.325Z,5.40
2022-12-08T16:28:17.487Z,5.20
2022-12-08T16:30:43.762Z,5.20
2022-12-08T16:33:13.884Z,5.20
2022-12-08T16:35:43.017Z,5.20
2022-12-08T16:38:16.837Z,5.20
2022-12-08T16:41:06.011Z,5.30
2022-12-08T16:43:36.886Z,5.30
2022-12-08T16:46:06.150Z,5.40
2022-12-08T16:48:34.940Z,5.30
2022-12-08T16:51:04.672Z,5.40
2022-12-08T16:53:33.223Z,5.20
2022-12-08T16:56:01.859Z,5.20
2022-12-08T16:58:30.847Z,5.10
2022-12-08T17:01:00.872Z,5.10
2022-12-08T17:03:30.369Z,5.10
2022-12-08T17:05:58.847Z,5.00
2022-12-08T17:08:27.423Z,5.20
2022-12-08T17:11:08.307Z,5.00
2022-12-08T17:13:39.105Z,5.00
2022-12-08T17:16:15.358Z,5.00
2022-12-08T17:18:44.139Z,5.00
2022-12-08T17:21:13.643Z,5.00
2022-12-08T17:23:43.453Z,5.00
2022-12-08T17:26:12.652Z,4.90
2022-12-08T17:31:35.249Z,5.00
2022-12-08T17:34:10.332Z,5.00
2022-12-08T17:36:39.957Z,5.00
2022-12-08T17:39:12.151Z,4.90
2022-12-08T17:41:45.482Z,4.90
2022-12-08T17:44:17.790Z,5.00
2022-12-08T17:46:52.931Z,5.00
2022-12-08T17:49:24.718Z,5.00
2022-12-08T17:51:56.774Z,5.00
2022-12-08T17:54:27.344Z,5.10
2022-12-08T17:56:58.671Z,5.10
2022-12-08T17:59:29.358Z,5.10
2022-12-08T18:02:00.250Z,5.10
2022-12-08T18:04:33.203Z,5.00
2022-12-08T18:07:03.553Z,5.00
2022-12-08T18:09:32.899Z,5.00
2022-12-08T18:12:01.810Z,5.10
2022-12-08T18:14:30.532Z,4.90
2022-12-08T18:17:00.906Z,4.90
2022-12-08T18:19:29.764Z,4.90
2022-12-08T18:21:58.510Z,4.90
2022-12-08T18:24:27.215Z,4.90
2022-12-08T18:26:57.889Z,4.90
2022-12-08T18:29:27.848Z,4.80
2022-12-08T18:31:56.630Z,4.80
2022-12-08T18:34:27.232Z,4.80
2022-12-08T18:36:55.888Z,4.70
2022-12-08T18:39:26.994Z,4.70
2022-12-08T18:41:57.437Z,4.80
2022-12-08T18:44:26.513Z,4.70
2022-12-08T18:46:55.383Z,4.70
2022-12-08T18:49:26.530Z,4.70
2022-12-08T18:51:55.191Z,4.70
2022-12-08T18:54:37.103Z,4.60
2022-12-08T18:57:12.278Z,4.60
2022-12-08T18:59:40.824Z,4.60
2022-12-08T19:02:09.582Z,4.60
2022-12-08T19:04:39.783Z,4.50
2022-12-08T19:07:08.404Z,4.60
2022-12-08T19:09:37.297Z,4.60
2022-12-08T19:12:06.808Z,4.60
2022-12-08T19:14:35.927Z,4.70
2022-12-08T19:17:04.559Z,4.70
2022-12-08T19:19:33.202Z,4.70
2022-12-08T19:22:04.190Z,4.70
2022-12-08T19:24:36.879Z,4.60
2022-12-08T19:27:06.790Z,4.80
2022-12-08T19:29:35.840Z,4.80
2022-12-08T19:32:05.332Z,4.80
2022-12-08T19:34:34.018Z,4.80
2022-12-08T19:37:04.331Z,4.80
2022-12-08T19:39:52.341Z,4.70
2022-12-08T19:42:39.732Z,4.70
2022-12-08T19:45:12.570Z,4.70
2022-12-08T19:47:42.557Z,4.70
2022-12-08T19:50:32.401Z,4.70
2022-12-08T19:53:03.051Z,4.70
2022-12-08T19:55:31.855Z,4.80
2022-12-08T19:58:02.068Z,4.60
2022-12-08T20:00:33.009Z,4.70
2022-12-08T20:03:02.480Z,4.60
2022-12-08T20:05:34.471Z,4.60
2022-12-08T20:08:04.782Z,4.60
2022-12-08T20:10:36.399Z,4.60
2022-12-08T20:13:23.745Z,4.60
2022-12-08T20:15:53.377Z,4.60
2022-12-08T20:18:22.529Z,4.60
2022-12-08T20:20:51.557Z,4.60
2022-12-08T20:23:21.656Z,4.60
2022-12-08T20:25:50.250Z,4.60
2022-12-08T20:28:20.124Z,4.60
2022-12-08T20:30:49.360Z,4.60
2022-12-08T20:33:19.916Z,4.60
2022-12-08T20:35:50.239Z,4.50
2022-12-08T20:38:25.467Z,4.50
2022-12-08T20:40:57.969Z,4.60
2022-12-08T20:43:27.324Z,4.40
2022-12-08T20:45:56.028Z,4.30
2022-12-08T20:48:25.090Z,4.30
2022-12-08T20:50:55.014Z,4.30
2022-12-08T20:53:25.374Z,4.30
2022-12-08T20:55:54.510Z,4.20
2022-12-08T20:58:23.514Z,4.20
2022-12-08T21:00:52.458Z,4.20
2022-12-08T21:03:21.416Z,4.20
2022-12-08T21:05:51.114Z,4.10
2022-12-08T21:08:20.927Z,4.00
2022-12-08T21:10:57.371Z,3.80
2022-12-08T21:13:26.480Z,3.70
2022-12-08T21:15:55.522Z,3.50
2022-12-08T21:18:24.821Z,3.50
2022-12-08T21:21:04.984Z,3.50
2022-12-08T21:23:34.122Z,3.50
2022-12-08T21:26:10.767Z,3.40
2022-12-08T21:28:39.507Z,3.40
2022-12-08T21:31:10.361Z,3.30
2022-12-08T21:33:39.945Z,3.30
2022-12-08T21:36:12.757Z,3.30
2022-12-08T21:38:42.716Z,3.20
2022-12-08T21:41:15.895Z,3.20
2022-12-08T21:43:44.725Z,3.20
2022-12-08T21:46:20.914Z,3.20
2022-12-08T21:48:50.097Z,3.20
2022-12-08T21:51:19.050Z,3.10
2022-12-08T21:53:47.859Z,3.10
2022-12-08T21:56:18.360Z,2.90
2022-12-08T21:58:47.088Z,2.80
2022-12-08T22:01:15.805Z,2.80
2022-12-08T22:03:44.704Z,2.90
2022-12-08T22:06:15.784Z,2.70
2022-12-08T22:08:44.863Z,2.90
2022-12-08T22:11:13.975Z,2.80
2022-12-08T22:13:44.435Z,2.60
2022-12-08T22:16:15.942Z,2.50
2022-12-08T22:18:45.161Z,2.50
2022-12-08T22:21:17.282Z,2.60
2022-12-08T22:23:46.786Z,2.50
2022-12-08T22:26:15.535Z,2.50
2022-12-08T22:28:46.076Z,2.50
2022-12-08T22:31:18.537Z,2.50
2022-12-08T22:33:47.627Z,2.50
2022-12-08T22:36:19.429Z,2.40
2022-12-08T22:38:48.684Z,2.50
2022-12-08T22:41:18.240Z,2.30
2022-12-08T22:43:49.829Z,2.40
2022-12-08T22:46:22.284Z,2.40
2022-12-08T22:48:51.729Z,2.10
2022-12-08T22:51:21.389Z,2.10
2022-12-08T22:53:50.911Z,2.10
2022-12-08T22:56:20.808Z,2.20
2022-12-08T22:58:51.371Z,2.10
2022-12-08T23:01:26.162Z,2.10
2022-12-08T23:03:55.325Z,2.10
2022-12-08T23:06:27.060Z,2.00
2022-12-08T23:08:57.919Z,2.10
2022-12-08T23:11:31.866Z,2.10
2022-12-08T23:14:02.591Z,2.20
2022-12-08T23:16:31.686Z,2.20
2022-12-08T23:19:01.065Z,2.00
2022-12-08T23:21:29.848Z,2.00
2022-12-08T23:23:58.481Z,2.00
2022-12-08T23:26:30.547Z,2.00
2022-12-08T23:29:02.227Z,2.00
2022-12-08T23:31:31.260Z,2.00
2022-12-08T23:33:59.976Z,2.20
2022-12-08T23:36:28.768Z,1.90
2022-12-08T23:38:57.639Z,1.90
2022-12-08T23:41:26.431Z,2.10
2022-12-08T23:43:55.084Z,1.80
2022-12-08T23:46:25.700Z,1.90
2022-12-08T23:48:54.490Z,2.00
2022-12-08T23:51:23.083Z,1.90
2022-12-08T23:53:51.814Z,2.00
2022-12-08T23:56:22.223Z,1.90
2022-12-08T23:58:52.974Z,1.90
